sensor_id;sensor_type;location;lat;lon;timestamp;temperature;humidity
15872;DHT22;8035;51.962;7.162;2023-06-04T00:02:12;12.50;99.90
15872;DHT22;8035;51.962;7.162;2023-06-04T00:04:37;12.50;99.90
15872;DHT22;8035;51.962;7.162;2023-06-04T00:07:03;12.50;99.90
15872;DHT22;8035;51.962;7.162;2023-06-04T00:09:29;12.50;99.90
15872;DHT22;8035;51.962;7.162;2023-06-04T00:11:55;12.40;99.90
15872;DHT22;8035;51.962;7.162;2023-06-04T00:14:21;12.40;99.90
15872;DHT22;8035;51.962;7.162;2023-06-04T00:16:46;12.40;99.90
15872;DHT22;8035;51.962;7.162;2023-06-04T00:19:12;12.40;99.90
15872;DHT22;8035;51.962;7.162;2023-06-04T00:21:37;12.40;99.90
15872;DHT22;8035;51.962;7.162;2023-06-04T00:24:03;12.30;99.90
15872;DHT22;8035;51.962;7.162;2023-06-04T00:26:29;12.30;99.90
15872;DHT22;8035;51.962;7.162;2023-06-04T00:28:55;12.30;99.90
15872;DHT22;8035;51.962;7.162;2023-06-04T00:31:20;12.20;99.90
15872;DHT22;8035;51.962;7.162;2023-06-04T00:33:47;12.20;99.90
15872;DHT22;8035;51.962;7.162;2023-06-04T00:36:13;12.10;99.90
15872;DHT22;8035;51.962;7.162;2023-06-04T00:38:38;12.10;99.90
15872;DHT22;8035;51.962;7.162;2023-06-04T00:41:04;12.10;99.90
15872;DHT22;8035;51.962;7.162;2023-06-04T00:43:30;12.00;99.90
15872;DHT22;8035;51.962;7.162;2023-06-04T00:45:57;12.00;99.90
15872;DHT22;8035;51.962;7.162;2023-06-04T00:48:23;11.90;99.90
15872;DHT22;8035;51.962;7.162;2023-06-04T00:50:50;11.80;99.90
15872;DHT22;8035;51.962;7.162;2023-06-04T00:53:16;11.90;99.90
15872;DHT22;8035;51.962;7.162;2023-06-04T00:55:42;11.80;99.90
15872;DHT22;8035;51.962;7.162;2023-06-04T00:58:08;11.80;99.90
15872;DHT22;8035;51.962;7.162;2023-06-04T01:00:36;11.70;99.90
15872;DHT22;8035;51.962;7.162;2023-06-04T01:03:06;11.70;99.90
15872;DHT22;8035;51.962;7.162;2023-06-04T01:05:36;11.60;99.90
15872;DHT22;8035;51.962;7.162;2023-06-04T01:08:04;11.60;99.90
15872;DHT22;8035;51.962;7.162;2023-06-04T01:10:34;11.60;99.90
15872;DHT22;8035;51.962;7.162;2023-06-04T01:13:00;11.60;99.90
15872;DHT22;8035;51.962;7.162;2023-06-04T01:15:26;11.60;99.90
15872;DHT22;8035;51.962;7.162;2023-06-04T01:17:57;11.50;99.90
15872;DHT22;8035;51.962;7.162;2023-06-04T01:20:33;11.50;99.90
15872;DHT22;8035;51.962;7.162;2023-06-04T01:23:05;11.50;99.90
15872;DHT22;8035;51.962;7.162;2023-06-04T01:25:39;11.40;99.90
15872;DHT22;8035;51.962;7.162;2023-06-04T01:28:06;11.40;99.90
15872;DHT22;8035;51.962;7.162;2023-06-04T01:30:34;11.50;99.90
15872;DHT22;8035;51.962;7.162;2023-06-04T01:33:02;11.40;99.90
15872;DHT22;8035;51.962;7.162;2023-06-04T01:35:29;11.40;99.90
15872;DHT22;8035;51.962;7.162;2023-06-04T01:37:57;11.40;99.90
15872;DHT22;8035;51.962;7.162;2023-06-04T01:40:23;11.30;99.90
15872;DHT22;8035;51.962;7.162;2023-06-04T01:42:50;11.30;99.90
15872;DHT22;8035;51.962;7.162;2023-06-04T01:45:16;11.30;99.90
15872;DHT22;8035;51.962;7.162;2023-06-04T01:47:41;11.30;99.90
15872;DHT22;8035;51.962;7.162;2023-06-04T01:50:07;11.20;99.90
15872;DHT22;8035;51.962;7.162;2023-06-04T01:52:35;11.20;99.90
15872;DHT22;8035;51.962;7.162;2023-06-04T01:55:02;11.20;99.90
15872;DHT22;8035;51.962;7.162;2023-06-04T01:57:28;11.20;99.90
15872;DHT22;8035;51.962;7.162;2023-06-04T01:59:53;11.10;99.90
15872;DHT22;8035;51.962;7.162;2023-06-04T02:02:19;11.10;99.90
15872;DHT22;8035;51.962;7.162;2023-06-04T02:04:44;11.10;99.90
15872;DHT22;8035;51.962;7.162;2023-06-04T02:07:12;11.10;99.90
15872;DHT22;8035;51.962;7.162;2023-06-04T02:09:43;11.10;99.90
15872;DHT22;8035;51.962;7.162;2023-06-04T02:12:09;11.10;99.90
15872;DHT22;8035;51.962;7.162;2023-06-04T02:14:34;11.00;99.90
15872;DHT22;8035;51.962;7.162;2023-06-04T02:17:00;11.00;99.90
15872;DHT22;8035;51.962;7.162;2023-06-04T02:19:25;11.00;99.90
15872;DHT22;8035;51.962;7.162;2023-06-04T02:21:52;10.90;99.90
15872;DHT22;8035;51.962;7.162;2023-06-04T02:24:18;10.90;99.90
15872;DHT22;8035;51.962;7.162;2023-06-04T02:26:43;10.80;99.90
15872;DHT22;8035;51.962;7.162;2023-06-04T02:29:09;10.80;99.90
15872;DHT22;8035;51.962;7.162;2023-06-04T02:31:34;10.80;99.90
15872;DHT22;8035;51.962;7.162;2023-06-04T02:34:00;10.70;99.90
15872;DHT22;8035;51.962;7.162;2023-06-04T02:36:26;10.70;99.90
15872;DHT22;8035;51.962;7.162;2023-06-04T02:38:51;10.70;99.90
15872;DHT22;8035;51.962;7.162;2023-06-04T02:41:17;10.70;99.90
15872;DHT22;8035;51.962;7.162;2023-06-04T02:43:44;10.60;99.90
15872;DHT22;8035;51.962;7.162;2023-06-04T02:46:09;10.50;99.90
15872;DHT22;8035;51.962;7.162;2023-06-04T02:48:35;10.50;99.90
15872;DHT22;8035;51.962;7.162;2023-06-04T02:51:00;10.50;99.90
15872;DHT22;8035;51.962;7.162;2023-06-04T02:53:26;10.40;99.90
15872;DHT22;8035;51.962;7.162;2023-06-04T02:55:51;10.40;99.90
15872;DHT22;8035;51.962;7.162;2023-06-04T02:58:18;10.40;99.90
15872;DHT22;8035;51.962;7.162;2023-06-04T03:00:44;10.40;99.90
15872;DHT22;8035;51.962;7.162;2023-06-04T03:03:10;10.30;99.90
15872;DHT22;8035;51.962;7.162;2023-06-04T03:05:36;10.30;99.90
15872;DHT22;8035;51.962;7.162;2023-06-04T03:08:02;10.20;99.90
15872;DHT22;8035;51.962;7.162;2023-06-04T03:10:29;10.20;99.90
15872;DHT22;8035;51.962;7.162;2023-06-04T03:12:56;10.10;99.90
15872;DHT22;8035;51.962;7.162;2023-06-04T03:15:22;10.10;99.90
15872;DHT22;8035;51.962;7.162;2023-06-04T03:17:47;10.00;99.90
15872;DHT22;8035;51.962;7.162;2023-06-04T03:20:14;9.90;99.90
15872;DHT22;8035;51.962;7.162;2023-06-04T03:22:39;10.00;99.90
15872;DHT22;8035;51.962;7.162;2023-06-04T03:25:06;10.00;99.90
15872;DHT22;8035;51.962;7.162;2023-06-04T03:27:32;10.00;99.90
15872;DHT22;8035;51.962;7.162;2023-06-04T03:29:58;10.00;99.90
15872;DHT22;8035;51.962;7.162;2023-06-04T03:32:24;10.10;99.90
15872;DHT22;8035;51.962;7.162;2023-06-04T03:34:50;10.10;99.90
15872;DHT22;8035;51.962;7.162;2023-06-04T03:37:17;10.00;99.90
15872;DHT22;8035;51.962;7.162;2023-06-04T03:39:42;10.00;99.90
15872;DHT22;8035;51.962;7.162;2023-06-04T03:42:08;10.00;99.90
15872;DHT22;8035;51.962;7.162;2023-06-04T03:44:33;10.00;99.90
15872;DHT22;8035;51.962;7.162;2023-06-04T03:46:59;10.10;99.90
15872;DHT22;8035;51.962;7.162;2023-06-04T03:49:25;10.10;99.90
15872;DHT22;8035;51.962;7.162;2023-06-04T03:51:51;10.10;99.90
15872;DHT22;8035;51.962;7.162;2023-06-04T03:54:16;10.10;99.90
15872;DHT22;8035;51.962;7.162;2023-06-04T03:56:43;10.10;99.90
15872;DHT22;8035;51.962;7.162;2023-06-04T03:59:09;10.10;99.90
15872;DHT22;8035;51.962;7.162;2023-06-04T04:01:35;10.20;99.90
15872;DHT22;8035;51.962;7.162;2023-06-04T04:04:00;10.20;99.90
15872;DHT22;8035;51.962;7.162;2023-06-04T04:06:26;10.20;99.90
15872;DHT22;8035;51.962;7.162;2023-06-04T04:08:51;10.20;99.90
15872;DHT22;8035;51.962;7.162;2023-06-04T04:11:18;10.20;99.90
15872;DHT22;8035;51.962;7.162;2023-06-04T04:13:45;10.20;99.90
15872;DHT22;8035;51.962;7.162;2023-06-04T04:16:12;10.20;99.90
15872;DHT22;8035;51.962;7.162;2023-06-04T04:18:37;10.20;99.90
15872;DHT22;8035;51.962;7.162;2023-06-04T04:21:03;10.30;99.90
15872;DHT22;8035;51.962;7.162;2023-06-04T04:23:30;10.30;99.90
15872;DHT22;8035;51.962;7.162;2023-06-04T04:25:58;10.40;99.90
15872;DHT22;8035;51.962;7.162;2023-06-04T04:28:27;10.40;99.90
15872;DHT22;8035;51.962;7.162;2023-06-04T04:30:56;10.50;99.90
15872;DHT22;8035;51.962;7.162;2023-06-04T04:33:23;10.60;99.90
15872;DHT22;8035;51.962;7.162;2023-06-04T04:35:50;10.70;99.90
15872;DHT22;8035;51.962;7.162;2023-06-04T04:38:15;10.70;99.90
15872;DHT22;8035;51.962;7.162;2023-06-04T04:40:42;10.70;99.90
15872;DHT22;8035;51.962;7.162;2023-06-04T04:43:08;10.80;99.90
15872;DHT22;8035;51.962;7.162;2023-06-04T04:45:34;10.80;99.90
15872;DHT22;8035;51.962;7.162;2023-06-04T04:47:59;10.80;99.90
15872;DHT22;8035;51.962;7.162;2023-06-04T04:50:25;10.90;99.90
15872;DHT22;8035;51.962;7.162;2023-06-04T04:52:51;10.90;99.90
15872;DHT22;8035;51.962;7.162;2023-06-04T04:55:16;11.00;99.90
15872;DHT22;8035;51.962;7.162;2023-06-04T04:57:42;11.10;99.90
15872;DHT22;8035;51.962;7.162;2023-06-04T05:00:08;11.10;99.90
15872;DHT22;8035;51.962;7.162;2023-06-04T05:02:35;11.10;99.90
15872;DHT22;8035;51.962;7.162;2023-06-04T05:05:01;11.20;99.90
15872;DHT22;8035;51.962;7.162;2023-06-04T05:07:27;11.30;99.90
15872;DHT22;8035;51.962;7.162;2023-06-04T05:09:53;11.40;99.90
15872;DHT22;8035;51.962;7.162;2023-06-04T05:12:18;11.50;99.90
15872;DHT22;8035;51.962;7.162;2023-06-04T05:14:44;11.60;99.90
15872;DHT22;8035;51.962;7.162;2023-06-04T05:17:10;11.70;99.90
15872;DHT22;8035;51.962;7.162;2023-06-04T05:19:36;11.80;99.90
15872;DHT22;8035;51.962;7.162;2023-06-04T05:22:03;11.90;99.90
15872;DHT22;8035;51.962;7.162;2023-06-04T05:24:28;11.90;99.90
15872;DHT22;8035;51.962;7.162;2023-06-04T05:26:55;12.00;99.90
15872;DHT22;8035;51.962;7.162;2023-06-04T05:29:22;12.10;99.90
15872;DHT22;8035;51.962;7.162;2023-06-04T05:31:48;12.20;99.90
15872;DHT22;8035;51.962;7.162;2023-06-04T05:34:13;12.20;99.90
15872;DHT22;8035;51.962;7.162;2023-06-04T05:36:42;12.40;99.90
15872;DHT22;8035;51.962;7.162;2023-06-04T05:39:08;12.50;99.90
15872;DHT22;8035;51.962;7.162;2023-06-04T05:41:34;12.60;99.90
15872;DHT22;8035;51.962;7.162;2023-06-04T05:44:01;12.70;99.90
15872;DHT22;8035;51.962;7.162;2023-06-04T05:46:26;12.80;99.90
15872;DHT22;8035;51.962;7.162;2023-06-04T05:48:52;12.90;99.90
15872;DHT22;8035;51.962;7.162;2023-06-04T05:51:19;13.00;99.90
15872;DHT22;8035;51.962;7.162;2023-06-04T05:53:46;13.10;99.90
15872;DHT22;8035;51.962;7.162;2023-06-04T05:56:12;13.20;99.90
15872;DHT22;8035;51.962;7.162;2023-06-04T05:58:38;13.40;99.90
15872;DHT22;8035;51.962;7.162;2023-06-04T06:01:04;13.50;99.90
15872;DHT22;8035;51.962;7.162;2023-06-04T06:03:30;13.70;99.90
15872;DHT22;8035;51.962;7.162;2023-06-04T06:05:57;13.80;99.90
15872;DHT22;8035;51.962;7.162;2023-06-04T06:08:25;13.90;99.90
15872;DHT22;8035;51.962;7.162;2023-06-04T06:10:50;14.10;99.90
15872;DHT22;8035;51.962;7.162;2023-06-04T06:13:16;14.20;99.90
15872;DHT22;8035;51.962;7.162;2023-06-04T06:15:41;14.50;99.90
15872;DHT22;8035;51.962;7.162;2023-06-04T06:18:08;14.70;99.90
15872;DHT22;8035;51.962;7.162;2023-06-04T06:20:34;15.00;99.90
15872;DHT22;8035;51.962;7.162;2023-06-04T06:23:06;15.30;99.90
15872;DHT22;8035;51.962;7.162;2023-06-04T06:25:32;15.50;99.90
15872;DHT22;8035;51.962;7.162;2023-06-04T06:27:57;15.70;99.90
15872;DHT22;8035;51.962;7.162;2023-06-04T06:30:23;15.90;99.90
15872;DHT22;8035;51.962;7.162;2023-06-04T06:32:49;16.10;99.90
15872;DHT22;8035;51.962;7.162;2023-06-04T06:35:15;16.20;99.90
15872;DHT22;8035;51.962;7.162;2023-06-04T06:37:41;16.40;99.90
15872;DHT22;8035;51.962;7.162;2023-06-04T06:40:09;16.50;99.90
15872;DHT22;8035;51.962;7.162;2023-06-04T06:42:34;16.60;99.90
15872;DHT22;8035;51.962;7.162;2023-06-04T06:45:00;16.80;99.90
15872;DHT22;8035;51.962;7.162;2023-06-04T06:47:26;16.90;99.90
15872;DHT22;8035;51.962;7.162;2023-06-04T06:49:52;16.90;99.90
15872;DHT22;8035;51.962;7.162;2023-06-04T06:52:17;17.00;99.90
15872;DHT22;8035;51.962;7.162;2023-06-04T06:54:45;17.10;99.90
15872;DHT22;8035;51.962;7.162;2023-06-04T06:57:11;17.20;99.90
15872;DHT22;8035;51.962;7.162;2023-06-04T06:59:37;17.30;99.90
15872;DHT22;8035;51.962;7.162;2023-06-04T07:02:04;17.30;99.90
15872;DHT22;8035;51.962;7.162;2023-06-04T07:04:30;17.30;99.90
15872;DHT22;8035;51.962;7.162;2023-06-04T07:06:56;17.50;99.90
15872;DHT22;8035;51.962;7.162;2023-06-04T07:09:21;17.80;99.90
15872;DHT22;8035;51.962;7.162;2023-06-04T07:11:47;17.90;99.90
15872;DHT22;8035;51.962;7.162;2023-06-04T07:14:14;18.10;99.90
15872;DHT22;8035;51.962;7.162;2023-06-04T07:16:39;18.20;99.90
15872;DHT22;8035;51.962;7.162;2023-06-04T07:19:05;18.30;99.90
15872;DHT22;8035;51.962;7.162;2023-06-04T07:21:30;18.40;99.90
15872;DHT22;8035;51.962;7.162;2023-06-04T07:23:56;18.50;99.90
15872;DHT22;8035;51.962;7.162;2023-06-04T07:26:22;18.70;99.90
15872;DHT22;8035;51.962;7.162;2023-06-04T07:28:47;18.80;99.90
15872;DHT22;8035;51.962;7.162;2023-06-04T07:31:16;19.00;99.90
15872;DHT22;8035;51.962;7.162;2023-06-04T07:33:42;19.00;99.90
15872;DHT22;8035;51.962;7.162;2023-06-04T07:36:14;19.10;99.90
15872;DHT22;8035;51.962;7.162;2023-06-04T07:38:40;19.30;99.90
15872;DHT22;8035;51.962;7.162;2023-06-04T07:41:06;19.30;99.90
15872;DHT22;8035;51.962;7.162;2023-06-04T07:43:34;19.30;99.90
15872;DHT22;8035;51.962;7.162;2023-06-04T07:46:01;19.50;99.90
15872;DHT22;8035;51.962;7.162;2023-06-04T07:48:27;19.70;99.90
15872;DHT22;8035;51.962;7.162;2023-06-04T07:50:57;19.80;99.90
15872;DHT22;8035;51.962;7.162;2023-06-04T07:53:23;19.90;99.90
15872;DHT22;8035;51.962;7.162;2023-06-04T07:55:49;20.00;99.90
15872;DHT22;8035;51.962;7.162;2023-06-04T07:58:14;20.10;99.90
15872;DHT22;8035;51.962;7.162;2023-06-04T08:00:41;20.20;99.90
15872;DHT22;8035;51.962;7.162;2023-06-04T08:03:06;20.40;99.90
15872;DHT22;8035;51.962;7.162;2023-06-04T08:05:32;20.40;99.90
15872;DHT22;8035;51.962;7.162;2023-06-04T08:07:57;20.50;99.90
15872;DHT22;8035;51.962;7.162;2023-06-04T08:10:23;20.70;99.90
15872;DHT22;8035;51.962;7.162;2023-06-04T08:12:48;21.00;99.90
15872;DHT22;8035;51.962;7.162;2023-06-04T08:15:14;21.00;99.90
15872;DHT22;8035;51.962;7.162;2023-06-04T08:17:40;21.10;99.90
15872;DHT22;8035;51.962;7.162;2023-06-04T08:20:06;21.00;99.90
15872;DHT22;8035;51.962;7.162;2023-06-04T08:22:32;21.00;99.90
15872;DHT22;8035;51.962;7.162;2023-06-04T08:24:57;21.10;99.90
15872;DHT22;8035;51.962;7.162;2023-06-04T08:27:23;21.20;99.90
15872;DHT22;8035;51.962;7.162;2023-06-04T08:29:48;21.20;99.90
15872;DHT22;8035;51.962;7.162;2023-06-04T08:32:14;21.30;99.90
15872;DHT22;8035;51.962;7.162;2023-06-04T08:34:40;21.40;99.90
15872;DHT22;8035;51.962;7.162;2023-06-04T08:37:05;21.50;99.90
15872;DHT22;8035;51.962;7.162;2023-06-04T08:39:31;21.50;99.90
15872;DHT22;8035;51.962;7.162;2023-06-04T08:42:04;21.70;99.90
15872;DHT22;8035;51.962;7.162;2023-06-04T08:44:33;21.90;99.90
15872;DHT22;8035;51.962;7.162;2023-06-04T08:47:03;21.90;99.90
15872;DHT22;8035;51.962;7.162;2023-06-04T08:49:34;22.10;99.90
15872;DHT22;8035;51.962;7.162;2023-06-04T08:52:03;22.30;99.90
15872;DHT22;8035;51.962;7.162;2023-06-04T08:54:29;22.30;99.90
15872;DHT22;8035;51.962;7.162;2023-06-04T08:56:57;22.30;99.90
15872;DHT22;8035;51.962;7.162;2023-06-04T08:59:23;22.40;99.90
15872;DHT22;8035;51.962;7.162;2023-06-04T09:01:53;22.50;99.90
15872;DHT22;8035;51.962;7.162;2023-06-04T09:04:19;22.70;99.90
15872;DHT22;8035;51.962;7.162;2023-06-04T09:06:45;22.80;99.90
15872;DHT22;8035;51.962;7.162;2023-06-04T09:09:12;22.80;99.90
15872;DHT22;8035;51.962;7.162;2023-06-04T09:11:52;22.90;99.90
15872;DHT22;8035;51.962;7.162;2023-06-04T09:14:18;23.00;99.90
15872;DHT22;8035;51.962;7.162;2023-06-04T09:16:48;23.00;99.90
15872;DHT22;8035;51.962;7.162;2023-06-04T09:19:16;23.10;99.90
15872;DHT22;8035;51.962;7.162;2023-06-04T09:21:51;23.20;99.90
15872;DHT22;8035;51.962;7.162;2023-06-04T09:24:21;23.30;99.90
15872;DHT22;8035;51.962;7.162;2023-06-04T09:26:47;23.30;99.90
15872;DHT22;8035;51.962;7.162;2023-06-04T09:29:14;23.30;99.70
15872;DHT22;8035;51.962;7.162;2023-06-04T09:31:40;23.30;99.70
15872;DHT22;8035;51.962;7.162;2023-06-04T09:34:06;23.20;97.40
15872;DHT22;8035;51.962;7.162;2023-06-04T09:36:33;23.10;95.90
15872;DHT22;8035;51.962;7.162;2023-06-04T09:39:00;22.80;95.60
15872;DHT22;8035;51.962;7.162;2023-06-04T09:41:26;22.90;96.40
15872;DHT22;8035;51.962;7.162;2023-06-04T09:44:02;23.00;95.90
15872;DHT22;8035;51.962;7.162;2023-06-04T09:46:28;23.10;95.70
15872;DHT22;8035;51.962;7.162;2023-06-04T09:49:02;23.10;96.60
15872;DHT22;8035;51.962;7.162;2023-06-04T09:51:29;23.40;97.00
15872;DHT22;8035;51.962;7.162;2023-06-04T09:53:55;23.50;95.90
15872;DHT22;8035;51.962;7.162;2023-06-04T09:56:22;23.60;96.20
15872;DHT22;8035;51.962;7.162;2023-06-04T09:58:49;23.70;95.60
15872;DHT22;8035;51.962;7.162;2023-06-04T10:01:15;23.60;95.10
15872;DHT22;8035;51.962;7.162;2023-06-04T10:03:46;23.40;94.60
15872;DHT22;8035;51.962;7.162;2023-06-04T10:06:14;23.30;95.70
15872;DHT22;8035;51.962;7.162;2023-06-04T10:08:42;23.50;96.70
15872;DHT22;8035;51.962;7.162;2023-06-04T10:11:09;23.70;96.60
15872;DHT22;8035;51.962;7.162;2023-06-04T10:13:49;23.80;96.20
15872;DHT22;8035;51.962;7.162;2023-06-04T10:16:19;23.80;95.50
15872;DHT22;8035;51.962;7.162;2023-06-04T10:18:46;24.00;96.20
15872;DHT22;8035;51.962;7.162;2023-06-04T10:21:13;24.10;95.50
15872;DHT22;8035;51.962;7.162;2023-06-04T10:23:40;24.10;95.20
15872;DHT22;8035;51.962;7.162;2023-06-04T10:26:07;24.10;93.70
15872;DHT22;8035;51.962;7.162;2023-06-04T10:28:34;24.30;94.90
15872;DHT22;8035;51.962;7.162;2023-06-04T10:31:00;24.60;94.80
15872;DHT22;8035;51.962;7.162;2023-06-04T10:33:26;24.60;94.70
15872;DHT22;8035;51.962;7.162;2023-06-04T10:35:54;24.60;94.00
15872;DHT22;8035;51.962;7.162;2023-06-04T10:38:21;24.60;94.80
15872;DHT22;8035;51.962;7.162;2023-06-04T10:40:48;24.60;93.40
15872;DHT22;8035;51.962;7.162;2023-06-04T10:43:14;24.60;92.70
15872;DHT22;8035;51.962;7.162;2023-06-04T10:45:42;24.50;93.10
15872;DHT22;8035;51.962;7.162;2023-06-04T10:48:10;24.70;93.50
15872;DHT22;8035;51.962;7.162;2023-06-04T10:50:51;24.80;93.50
15872;DHT22;8035;51.962;7.162;2023-06-04T10:53:18;24.90;92.80
15872;DHT22;8035;51.962;7.162;2023-06-04T10:55:48;25.00;93.40
15872;DHT22;8035;51.962;7.162;2023-06-04T10:58:14;24.90;93.10
15872;DHT22;8035;51.962;7.162;2023-06-04T11:00:42;24.80;92.30
15872;DHT22;8035;51.962;7.162;2023-06-04T11:03:10;24.60;91.60
15872;DHT22;8035;51.962;7.162;2023-06-04T11:05:37;24.90;93.20
15872;DHT22;8035;51.962;7.162;2023-06-04T11:08:04;25.10;93.00
15872;DHT22;8035;51.962;7.162;2023-06-04T11:10:42;25.10;92.10
15872;DHT22;8035;51.962;7.162;2023-06-04T11:13:08;25.20;93.10
15872;DHT22;8035;51.962;7.162;2023-06-04T11:15:46;25.30;92.40
15872;DHT22;8035;51.962;7.162;2023-06-04T11:18:18;25.50;92.40
15872;DHT22;8035;51.962;7.162;2023-06-04T11:20:46;25.50;92.50
15872;DHT22;8035;51.962;7.162;2023-06-04T11:23:13;25.50;91.70
15872;DHT22;8035;51.962;7.162;2023-06-04T11:25:39;25.40;90.90
15872;DHT22;8035;51.962;7.162;2023-06-04T11:28:04;25.40;91.60
15872;DHT22;8035;51.962;7.162;2023-06-04T11:30:30;25.50;90.90
15872;DHT22;8035;51.962;7.162;2023-06-04T11:33:03;25.60;91.60
15872;DHT22;8035;51.962;7.162;2023-06-04T11:35:30;25.80;91.90
15872;DHT22;8035;51.962;7.162;2023-06-04T11:37:57;25.80;90.30
15872;DHT22;8035;51.962;7.162;2023-06-04T11:40:24;25.50;90.50
15872;DHT22;8035;51.962;7.162;2023-06-04T11:42:52;25.30;90.00
15872;DHT22;8035;51.962;7.162;2023-06-04T11:45:19;25.20;90.90
15872;DHT22;8035;51.962;7.162;2023-06-04T11:47:53;25.10;89.60
15872;DHT22;8035;51.962;7.162;2023-06-04T11:50:21;25.10;90.70
15872;DHT22;8035;51.962;7.162;2023-06-04T11:52:47;25.30;90.70
15872;DHT22;8035;51.962;7.162;2023-06-04T11:55:14;25.50;90.10
15872;DHT22;8035;51.962;7.162;2023-06-04T11:57:40;25.30;88.50
15872;DHT22;8035;51.962;7.162;2023-06-04T12:00:07;25.30;88.50
15872;DHT22;8035;51.962;7.162;2023-06-04T12:02:47;25.40;88.90
15872;DHT22;8035;51.962;7.162;2023-06-04T12:05:14;25.60;90.30
15872;DHT22;8035;51.962;7.162;2023-06-04T12:07:40;25.60;88.50
15872;DHT22;8035;51.962;7.162;2023-06-04T12:10:07;25.70;89.10
15872;DHT22;8035;51.962;7.162;2023-06-04T12:12:34;25.70;89.90
15872;DHT22;8035;51.962;7.162;2023-06-04T12:15:00;25.70;90.40
15872;DHT22;8035;51.962;7.162;2023-06-04T12:17:26;26.00;90.70
15872;DHT22;8035;51.962;7.162;2023-06-04T12:19:52;26.10;90.50
15872;DHT22;8035;51.962;7.162;2023-06-04T12:22:18;26.10;90.00
15872;DHT22;8035;51.962;7.162;2023-06-04T12:24:53;26.00;87.50
15872;DHT22;8035;51.962;7.162;2023-06-04T12:27:20;25.80;88.90
15872;DHT22;8035;51.962;7.162;2023-06-04T12:30:05;25.80;89.20
15872;DHT22;8035;51.962;7.162;2023-06-04T12:32:35;26.10;90.10
15872;DHT22;8035;51.962;7.162;2023-06-04T12:35:01;26.20;89.50
15872;DHT22;8035;51.962;7.162;2023-06-04T12:37:26;26.30;89.80
15872;DHT22;8035;51.962;7.162;2023-06-04T12:39:55;26.30;89.30
15872;DHT22;8035;51.962;7.162;2023-06-04T12:42:21;26.20;89.20
15872;DHT22;8035;51.962;7.162;2023-06-04T12:44:48;26.40;89.60
15872;DHT22;8035;51.962;7.162;2023-06-04T12:47:13;26.20;87.30
15872;DHT22;8035;51.962;7.162;2023-06-04T12:49:40;26.30;88.90
15872;DHT22;8035;51.962;7.162;2023-06-04T12:52:05;26.20;86.00
15872;DHT22;8035;51.962;7.162;2023-06-04T12:54:32;25.90;83.60
15872;DHT22;8035;51.962;7.162;2023-06-04T12:56:58;25.70;86.00
15872;DHT22;8035;51.962;7.162;2023-06-04T12:59:25;25.70;85.80
15872;DHT22;8035;51.962;7.162;2023-06-04T13:01:51;25.70;85.80
15872;DHT22;8035;51.962;7.162;2023-06-04T13:04:17;25.80;87.80
15872;DHT22;8035;51.962;7.162;2023-06-04T13:06:42;26.10;89.00
15872;DHT22;8035;51.962;7.162;2023-06-04T13:09:08;26.20;89.00
15872;DHT22;8035;51.962;7.162;2023-06-04T13:11:39;26.20;87.20
15872;DHT22;8035;51.962;7.162;2023-06-04T13:14:05;26.10;87.30
15872;DHT22;8035;51.962;7.162;2023-06-04T13:16:31;26.10;87.80
15872;DHT22;8035;51.962;7.162;2023-06-04T13:18:57;26.10;87.40
15872;DHT22;8035;51.962;7.162;2023-06-04T13:21:22;26.20;87.30
15872;DHT22;8035;51.962;7.162;2023-06-04T13:23:48;26.10;86.10
15872;DHT22;8035;51.962;7.162;2023-06-04T13:26:15;26.20;85.00
15872;DHT22;8035;51.962;7.162;2023-06-04T13:28:41;26.10;86.80
15872;DHT22;8035;51.962;7.162;2023-06-04T13:31:07;26.10;84.60
15872;DHT22;8035;51.962;7.162;2023-06-04T13:33:32;26.10;83.80
15872;DHT22;8035;51.962;7.162;2023-06-04T13:36:02;26.00;84.40
15872;DHT22;8035;51.962;7.162;2023-06-04T13:38:27;26.10;84.80
15872;DHT22;8035;51.962;7.162;2023-06-04T13:40:53;25.90;85.60
15872;DHT22;8035;51.962;7.162;2023-06-04T13:43:18;25.80;85.00
15872;DHT22;8035;51.962;7.162;2023-06-04T13:45:44;25.90;85.90
15872;DHT22;8035;51.962;7.162;2023-06-04T13:48:11;26.00;87.60
15872;DHT22;8035;51.962;7.162;2023-06-04T13:50:37;26.00;84.30
15872;DHT22;8035;51.962;7.162;2023-06-04T13:53:03;25.90;85.40
15872;DHT22;8035;51.962;7.162;2023-06-04T13:55:29;25.80;85.60
15872;DHT22;8035;51.962;7.162;2023-06-04T13:57:55;25.80;86.20
15872;DHT22;8035;51.962;7.162;2023-06-04T14:00:21;25.70;85.40
15872;DHT22;8035;51.962;7.162;2023-06-04T14:02:48;25.90;85.80
15872;DHT22;8035;51.962;7.162;2023-06-04T14:05:13;25.80;85.90
15872;DHT22;8035;51.962;7.162;2023-06-04T14:07:41;25.90;86.80
15872;DHT22;8035;51.962;7.162;2023-06-04T14:10:08;26.10;88.40
15872;DHT22;8035;51.962;7.162;2023-06-04T14:12:34;26.30;88.00
15872;DHT22;8035;51.962;7.162;2023-06-04T14:15:01;26.30;87.10
15872;DHT22;8035;51.962;7.162;2023-06-04T14:17:26;26.30;86.30
15872;DHT22;8035;51.962;7.162;2023-06-04T14:19:52;26.30;87.10
15872;DHT22;8035;51.962;7.162;2023-06-04T14:22:17;26.30;86.90
15872;DHT22;8035;51.962;7.162;2023-06-04T14:24:43;26.30;87.60
15872;DHT22;8035;51.962;7.162;2023-06-04T14:27:09;26.40;87.20
15872;DHT22;8035;51.962;7.162;2023-06-04T14:29:37;26.40;86.70
15872;DHT22;8035;51.962;7.162;2023-06-04T14:32:04;26.30;85.00
15872;DHT22;8035;51.962;7.162;2023-06-04T14:34:30;26.00;85.30
15872;DHT22;8035;51.962;7.162;2023-06-04T14:36:58;25.90;86.10
15872;DHT22;8035;51.962;7.162;2023-06-04T14:39:25;25.90;87.10
15872;DHT22;8035;51.962;7.162;2023-06-04T14:41:51;25.90;87.20
15872;DHT22;8035;51.962;7.162;2023-06-04T14:44:18;25.80;85.20
15872;DHT22;8035;51.962;7.162;2023-06-04T14:46:43;25.70;86.70
15872;DHT22;8035;51.962;7.162;2023-06-04T14:49:09;25.80;88.00
15872;DHT22;8035;51.962;7.162;2023-06-04T14:51:35;25.70;87.10
15872;DHT22;8035;51.962;7.162;2023-06-04T14:54:01;25.80;87.00
15872;DHT22;8035;51.962;7.162;2023-06-04T14:56:27;25.90;88.50
15872;DHT22;8035;51.962;7.162;2023-06-04T14:58:54;25.80;85.80
15872;DHT22;8035;51.962;7.162;2023-06-04T15:01:19;25.70;87.20
15872;DHT22;8035;51.962;7.162;2023-06-04T15:03:48;25.80;86.70
15872;DHT22;8035;51.962;7.162;2023-06-04T15:06:13;25.70;85.70
15872;DHT22;8035;51.962;7.162;2023-06-04T15:08:39;25.50;85.00
15872;DHT22;8035;51.962;7.162;2023-06-04T15:11:04;25.60;87.20
15872;DHT22;8035;51.962;7.162;2023-06-04T15:13:30;25.50;86.60
15872;DHT22;8035;51.962;7.162;2023-06-04T15:15:56;25.50;87.50
15872;DHT22;8035;51.962;7.162;2023-06-04T15:18:22;25.40;87.00
15872;DHT22;8035;51.962;7.162;2023-06-04T15:20:47;25.30;86.70
15872;DHT22;8035;51.962;7.162;2023-06-04T15:23:13;25.10;86.00
15872;DHT22;8035;51.962;7.162;2023-06-04T15:25:38;25.00;86.20
15872;DHT22;8035;51.962;7.162;2023-06-04T15:28:05;24.90;87.50
15872;DHT22;8035;51.962;7.162;2023-06-04T15:30:31;24.90;86.80
15872;DHT22;8035;51.962;7.162;2023-06-04T15:32:56;24.90;87.20
15872;DHT22;8035;51.962;7.162;2023-06-04T15:35:26;24.80;85.40
15872;DHT22;8035;51.962;7.162;2023-06-04T15:37:52;24.80;88.40
15872;DHT22;8035;51.962;7.162;2023-06-04T15:40:18;24.90;88.70
15872;DHT22;8035;51.962;7.162;2023-06-04T15:42:43;25.10;89.40